Time;durP1;ratioP1;P1;durP2;ratioP2;P2;SDS_P1;SDS_P2;PMS_P1;PMS_P2;Temp;Humidity;BMP_temperature;BMP_pressure;BME280_temperature;BME280_humidity;BME280_pressure;Samples;Min_cycle;Max_cycle;Signal;HPM_P1;HPM_P2
2022/03/20 00:02:20;;;;;;;15.10;9.07;;;5.60;99.90;;;;;;5015114;28;20042;-40
2022/03/20 00:04:47;;;;;;;14.85;7.63;;;5.50;99.90;;;;;;5011459;28;20120;-39
2022/03/20 00:07:14;;;;;;;21.70;11.10;;;5.50;99.90;;;;;;5015104;28;20046;-39
2022/03/20 00:09:40;;;;;;;17.95;9.38;;;5.50;99.90;;;;;;5015217;28;20470;-40
2022/03/20 00:12:09;;;;;;;19.08;10.93;;;5.50;99.90;;;;;;5015179;28;20050;-39
2022/03/20 00:14:37;;;;;;;22.25;12.27;;;5.40;99.90;;;;;;5014184;28;20400;-39
2022/03/20 00:17:04;;;;;;;20.58;10.65;;;5.40;99.90;;;;;;5014802;28;20077;-39
2022/03/20 00:19:30;;;;;;;14.57;8.75;;;5.40;99.90;;;;;;5013450;28;20084;-40
2022/03/20 00:21:57;;;;;;;18.50;9.73;;;5.40;99.90;;;;;;5014568;28;20053;-39
2022/03/20 00:24:24;;;;;;;16.25;8.27;;;5.30;99.90;;;;;;5014675;28;20490;-39
2022/03/20 00:26:56;;;;;;;13.60;7.55;;;5.30;99.90;;;;;;5013760;28;20038;-40
2022/03/20 00:29:26;;;;;;;16.05;7.20;;;5.20;99.90;;;;;;5013825;28;20038;-40
2022/03/20 00:31:54;;;;;;;13.63;7.25;;;5.20;99.90;;;;;;5014628;28;20393;-40
2022/03/20 00:34:21;;;;;;;14.93;9.07;;;5.20;99.90;;;;;;5013901;28;20053;-40
2022/03/20 00:36:47;;;;;;;23.25;11.77;;;5.20;99.90;;;;;;5013158;28;20050;-40
2022/03/20 00:39:14;;;;;;;22.92;11.25;;;5.10;99.90;;;;;;5015005;28;20050;-40
2022/03/20 00:41:42;;;;;;;14.52;8.70;;;5.10;99.90;;;;;;5014953;28;20092;-40
2022/03/20 00:44:08;;;;;;;14.23;8.82;;;5.10;99.90;;;;;;5008262;28;20046;-40
2022/03/20 00:46:35;;;;;;;20.05;9.18;;;5.00;99.90;;;;;;5011161;28;20072;-40
2022/03/20 00:49:03;;;;;;;14.13;7.90;;;5.00;99.90;;;;;;5013989;28;20069;-40
2022/03/20 00:51:30;;;;;;;11.25;7.50;;;5.00;99.90;;;;;;5008628;28;20046;-40
2022/03/20 00:53:56;;;;;;;12.68;7.68;;;4.90;99.90;;;;;;5013191;28;20474;-40
2022/03/20 00:56:23;;;;;;;15.32;6.82;;;4.90;99.90;;;;;;5014334;28;20047;-40
2022/03/20 00:58:50;;;;;;;14.70;6.32;;;4.90;99.90;;;;;;5013735;28;20045;-39
2022/03/20 01:01:16;;;;;;;13.32;7.13;;;4.90;99.90;;;;;;5013175;28;20050;-39
2022/03/20 01:03:43;;;;;;;15.30;7.50;;;4.80;99.90;;;;;;5013932;28;20038;-40
2022/03/20 01:06:11;;;;;;;13.43;7.43;;;4.80;99.90;;;;;;5014459;28;20160;-40
2022/03/20 01:08:38;;;;;;;14.75;6.78;;;4.80;99.90;;;;;;5013624;28;20052;-40
2022/03/20 01:11:05;;;;;;;17.05;7.05;;;4.70;99.90;;;;;;5013765;28;20050;-40
2022/03/20 01:13:32;;;;;;;15.57;7.47;;;4.70;99.90;;;;;;5013318;28;20076;-39
2022/03/20 01:15:59;;;;;;;15.93;7.70;;;4.70;99.90;;;;;;5014052;28;20455;-40
2022/03/20 01:18:25;;;;;;;16.92;7.90;;;4.70;99.90;;;;;;5013769;28;20133;-39
2022/03/20 01:20:52;;;;;;;13.88;6.65;;;4.70;99.90;;;;;;5012907;28;20056;-39
2022/03/20 01:23:21;;;;;;;18.02;7.35;;;4.70;99.90;;;;;;5012202;28;20049;-39
2022/03/20 01:25:49;;;;;;;13.10;7.13;;;4.60;99.90;;;;;;5012827;28;20381;-39
2022/03/20 01:28:15;;;;;;;13.77;7.53;;;4.70;99.90;;;;;;5012223;28;20393;-39
2022/03/20 01:30:42;;;;;;;14.20;7.20;;;4.60;99.90;;;;;;5013328;28;20056;-39
2022/03/20 01:33:09;;;;;;;10.85;7.25;;;4.60;99.90;;;;;;5013417;28;20046;-39
2022/03/20 01:35:36;;;;;;;17.75;8.20;;;4.60;99.90;;;;;;5013866;28;20081;-39
2022/03/20 01:38:02;;;;;;;15.85;7.20;;;4.60;99.90;;;;;;5011685;28;20056;-39
2022/03/20 01:40:30;;;;;;;15.05;8.05;;;4.50;99.90;;;;;;5012567;28;20042;-39
2022/03/20 01:42:57;;;;;;;12.65;7.70;;;4.60;99.90;;;;;;5010100;28;20046;-39
2022/03/20 01:45:24;;;;;;;16.30;7.95;;;4.50;99.90;;;;;;5007828;28;20058;-39
2022/03/20 01:47:51;;;;;;;12.88;7.43;;;4.50;99.90;;;;;;5011786;28;20054;-39
2022/03/20 01:50:19;;;;;;;16.25;7.78;;;4.40;99.90;;;;;;5012913;28;20046;-39
2022/03/20 01:52:46;;;;;;;16.95;8.13;;;4.40;99.90;;;;;;5012271;28;20058;-39
2022/03/20 01:55:13;;;;;;;13.75;7.30;;;4.40;99.90;;;;;;5012376;28;20100;-39
2022/03/20 01:57:41;;;;;;;15.13;8.10;;;4.40;99.90;;;;;;5012406;28;20056;-39
2022/03/20 02:00:09;;;;;;;14.05;8.30;;;4.30;99.90;;;;;;5024352;28;20485;-40
2022/03/20 02:02:35;;;;;;;16.38;7.93;;;4.30;99.90;;;;;;5012739;28;20049;-40
2022/03/20 02:05:04;;;;;;;15.85;8.07;;;4.30;99.90;;;;;;5012554;28;20042;-40
2022/03/20 02:07:34;;;;;;;16.67;8.70;;;4.30;99.90;;;;;;5011256;28;20053;-40
2022/03/20 02:10:00;;;;;;;15.68;8.38;;;4.30;99.90;;;;;;5011666;28;20052;-40
2022/03/20 02:12:28;;;;;;;13.55;8.90;;;4.20;99.90;;;;;;5011805;28;20104;-39
2022/03/20 02:14:56;;;;;;;15.05;7.95;;;4.20;99.90;;;;;;5010566;28;20041;-39
2022/03/20 02:17:23;;;;;;;14.60;8.80;;;4.20;99.90;;;;;;5011547;28;20058;-40
2022/03/20 02:19:50;;;;;;;17.83;8.45;;;4.20;99.90;;;;;;5012388;28;20392;-39
2022/03/20 02:22:18;;;;;;;17.17;9.40;;;4.10;99.90;;;;;;5012779;28;20060;-40
2022/03/20 02:24:48;;;;;;;17.33;8.88;;;4.10;99.90;;;;;;5011616;28;20046;-40
2022/03/20 02:27:17;;;;;;;20.40;9.17;;;4.10;99.90;;;;;;5012508;28;20049;-40
2022/03/20 02:29:44;;;;;;;13.25;8.40;;;4.10;99.90;;;;;;5009514;28;20095;-40
2022/03/20 02:32:12;;;;;;;16.73;9.10;;;4.00;99.90;;;;;;5012428;28;20046;-40
2022/03/20 02:34:39;;;;;;;17.23;9.00;;;4.00;99.90;;;;;;5012336;28;20048;-40
2022/03/20 02:37:06;;;;;;;17.20;9.50;;;4.00;99.90;;;;;;5012642;28;20060;-40
2022/03/20 02:39:34;;;;;;;20.27;9.52;;;4.00;99.90;;;;;;5011820;28;20405;-40
2022/03/20 02:42:02;;;;;;;14.88;9.75;;;4.00;99.90;;;;;;5012383;28;20058;-40
2022/03/20 02:44:55;;;;;;;22.25;9.43;;;3.90;99.90;;;;;;5012032;28;20116;-39
2022/03/20 02:47:23;;;;;;;18.08;9.10;;;4.00;99.90;;;;;;5007931;28;20053;-39
2022/03/20 02:49:51;;;;;;;14.90;9.40;;;3.90;99.90;;;;;;5011661;28;20058;-39
2022/03/20 02:52:18;;;;;;;20.00;10.95;;;3.90;99.90;;;;;;5012315;28;20486;-39
2022/03/20 02:54:46;;;;;;;20.27;9.45;;;3.90;99.90;;;;;;5012142;28;20081;-39
2022/03/20 02:57:13;;;;;;;17.52;10.05;;;3.90;99.90;;;;;;5012041;28;20045;-39
2022/03/20 02:59:40;;;;;;;16.13;9.68;;;3.90;99.90;;;;;;5010820;28;20041;-39
2022/03/20 03:02:09;;;;;;;21.70;10.75;;;3.80;99.90;;;;;;5011206;28;20489;-39
2022/03/20 03:04:37;;;;;;;25.70;11.85;;;3.80;99.90;;;;;;5012589;28;20054;-39
2022/03/20 03:07:05;;;;;;;21.35;11.40;;;3.80;99.90;;;;;;5011366;28;20038;-39
2022/03/20 03:12:17;;;;;;;20.10;10.75;;;3.80;99.90;;;;;;5010983;28;20046;-39
2022/03/20 03:17:31;;;;;;;19.75;10.88;;;3.70;99.90;;;;;;5010995;28;20049;-39
2022/03/20 03:19:58;;;;;;;21.92;11.13;;;3.70;99.90;;;;;;5007332;28;20529;-39
2022/03/20 03:22:26;;;;;;;22.48;11.98;;;3.70;99.90;;;;;;5011826;28;20038;-39
2022/03/20 03:24:53;;;;;;;26.38;12.05;;;3.70;99.90;;;;;;5012453;28;20042;-39
2022/03/20 03:27:21;;;;;;;20.60;11.90;;;3.70;99.90;;;;;;5011564;28;20041;-39
2022/03/20 03:29:48;;;;;;;22.13;11.65;;;3.60;99.90;;;;;;5011828;28;20421;-40
2022/03/20 03:32:14;;;;;;;22.42;12.13;;;3.60;99.90;;;;;;5011749;28;20056;-39
2022/03/20 03:37:32;;;;;;;22.88;12.57;;;3.60;99.90;;;;;;4973154;28;20065;-39
2022/03/20 03:39:59;;;;;;;22.67;13.35;;;3.50;99.90;;;;;;5010777;28;20041;-39
2022/03/20 03:42:27;;;;;;;24.23;13.00;;;3.50;99.90;;;;;;5011863;28;20044;-40
2022/03/20 03:44:54;;;;;;;23.38;11.90;;;3.50;99.90;;;;;;5007168;28;20038;-40
2022/03/20 03:47:21;;;;;;;21.95;13.05;;;3.50;99.90;;;;;;5010555;28;20385;-39
2022/03/20 03:49:48;;;;;;;24.08;12.60;;;3.50;99.90;;;;;;5010707;28;20048;-40
2022/03/20 03:52:14;;;;;;;20.98;12.65;;;3.40;99.90;;;;;;5007920;28;20100;-40
2022/03/20 03:54:41;;;;;;;26.75;13.18;;;3.50;99.90;;;;;;5015583;28;20045;-39
2022/03/20 03:57:08;;;;;;;22.67;13.30;;;3.50;99.90;;;;;;5015358;28;20558;-40
2022/03/20 03:59:36;;;;;;;26.90;14.35;;;3.40;99.90;;;;;;5015370;28;20538;-40
2022/03/20 04:02:03;;;;;;;22.35;13.15;;;3.40;99.90;;;;;;5015062;28;20046;-39
2022/03/20 04:04:30;;;;;;;24.52;14.02;;;3.30;99.90;;;;;;5015247;28;20053;-38
2022/03/20 04:06:57;;;;;;;24.42;12.95;;;3.30;99.90;;;;;;5015091;28;20121;-40
2022/03/20 04:09:24;;;;;;;21.98;12.88;;;3.30;99.90;;;;;;5014351;28;20434;-39
2022/03/20 04:11:52;;;;;;;20.85;12.50;;;3.30;99.90;;;;;;5014937;28;20056;-39
2022/03/20 04:14:18;;;;;;;22.08;12.68;;;3.30;99.90;;;;;;5015334;28;20363;-40
2022/03/20 04:16:46;;;;;;;21.48;13.57;;;3.20;99.90;;;;;;5014585;28;20050;-39
2022/03/20 04:19:13;;;;;;;24.25;13.55;;;3.20;99.90;;;;;;5014191;28;20393;-39
2022/03/20 04:21:40;;;;;;;25.85;13.50;;;3.20;99.90;;;;;;5014963;28;20044;-39
2022/03/20 04:24:07;;;;;;;21.80;13.10;;;3.20;99.90;;;;;;5011102;28;20253;-40
2022/03/20 04:26:34;;;;;;;21.13;13.00;;;3.20;99.90;;;;;;5013662;28;20045;-40
2022/03/20 04:29:01;;;;;;;24.73;13.68;;;3.20;99.90;;;;;;5014161;28;20386;-39
2022/03/20 04:31:28;;;;;;;24.02;14.45;;;3.10;99.90;;;;;;5014221;28;20068;-39
2022/03/20 04:33:56;;;;;;;23.13;14.52;;;3.10;99.90;;;;;;5008217;28;20052;-39
2022/03/20 04:36:23;;;;;;;23.73;14.32;;;3.10;99.90;;;;;;5013254;28;20077;-39
2022/03/20 04:38:50;;;;;;;24.88;14.32;;;3.00;99.90;;;;;;5014692;28;20042;-39
2022/03/20 04:41:17;;;;;;;27.58;14.82;;;3.10;99.90;;;;;;5015154;28;20053;-39
2022/03/20 04:43:44;;;;;;;24.98;15.60;;;3.00;99.90;;;;;;5013209;28;20092;-39
2022/03/20 04:46:11;;;;;;;27.52;15.27;;;3.00;99.90;;;;;;5014657;28;20054;-39
2022/03/20 04:59:36;;;;;;;30.98;16.30;;;2.90;99.90;;;;;;5014613;28;20057;-39
2022/03/20 05:02:03;;;;;;;28.90;15.90;;;2.90;99.90;;;;;;5009828;28;20059;-39
2022/03/20 05:04:29;;;;;;;25.70;15.57;;;2.90;99.90;;;;;;5014180;28;20046;-39
2022/03/20 05:06:57;;;;;;;25.23;16.17;;;2.80;99.90;;;;;;5013669;28;20393;-38
2022/03/20 05:14:57;;;;;;;29.20;16.20;;;2.80;99.90;;;;;;5013054;28;20395;-39
2022/03/20 05:17:23;;;;;;;30.17;15.98;;;2.80;99.90;;;;;;5013586;28;20409;-39
2022/03/20 05:19:50;;;;;;;30.95;17.00;;;2.80;99.90;;;;;;5010013;28;20132;-39
2022/03/20 05:22:18;;;;;;;31.92;16.88;;;2.70;99.90;;;;;;5012562;28;20128;-39
2022/03/20 05:24:45;;;;;;;27.80;17.30;;;2.70;99.90;;;;;;5012948;28;20046;-39
2022/03/20 05:27:12;;;;;;;29.27;16.67;;;2.70;99.90;;;;;;5013493;28;20481;-39
2022/03/20 05:29:40;;;;;;;34.78;17.15;;;2.70;99.90;;;;;;5013975;28;20056;-39
2022/03/20 05:32:08;;;;;;;35.10;17.83;;;2.70;99.90;;;;;;5012454;28;20481;-39
2022/03/20 05:34:34;;;;;;;28.33;16.92;;;2.70;99.90;;;;;;5004309;28;20560;-39
2022/03/20 05:37:01;;;;;;;27.05;17.48;;;2.70;99.90;;;;;;5012851;28;20037;-39
2022/03/20 05:39:30;;;;;;;29.30;16.17;;;2.70;99.90;;;;;;5009362;28;20077;-39
2022/03/20 05:41:56;;;;;;;30.58;17.67;;;2.70;99.90;;;;;;5013506;28;20045;-39
2022/03/20 05:44:24;;;;;;;27.58;18.20;;;2.60;99.90;;;;;;5012937;28;20440;-39
2022/03/20 05:46:51;;;;;;;31.15;17.13;;;2.70;99.90;;;;;;5012941;28;20533;-39
2022/03/20 05:49:18;;;;;;;26.90;17.50;;;2.60;99.90;;;;;;5012150;28;20046;-39
2022/03/20 05:51:46;;;;;;;31.83;18.50;;;2.60;99.90;;;;;;5012871;28;20049;-39
2022/03/20 05:54:13;;;;;;;36.08;18.15;;;2.60;99.90;;;;;;5011784;28;20132;-39
2022/03/20 05:59:25;;;;;;;29.00;17.65;;;2.60;99.90;;;;;;5013637;28;20078;-39
2022/03/20 06:01:52;;;;;;;32.30;18.92;;;2.60;99.90;;;;;;5012009;28;20585;-39
2022/03/20 06:04:19;;;;;;;27.67;17.52;;;2.60;99.90;;;;;;5012802;28;20503;-39
2022/03/20 06:06:48;;;;;;;30.02;17.50;;;2.60;99.90;;;;;;5012911;28;20042;-40
2022/03/20 06:09:14;;;;;;;30.02;18.17;;;2.60;99.90;;;;;;5012246;28;20045;-40
2022/03/20 06:11:43;;;;;;;32.85;18.20;;;2.60;99.90;;;;;;5013221;28;20131;-40
2022/03/20 06:14:09;;;;;;;34.22;18.73;;;2.50;99.90;;;;;;5012600;28;20049;-39
2022/03/20 06:16:36;;;;;;;27.55;18.52;;;2.60;99.90;;;;;;5010866;28;20437;-39
2022/03/20 06:19:07;;;;;;;26.85;18.38;;;2.60;99.90;;;;;;5012490;28;20129;-40
2022/03/20 06:21:34;;;;;;;30.30;18.27;;;2.60;99.90;;;;;;5012472;28;20046;-39
2022/03/20 06:24:00;;;;;;;33.75;18.70;;;2.70;99.90;;;;;;5012533;28;20053;-39
2022/03/20 06:26:27;;;;;;;32.88;18.50;;;2.70;99.90;;;;;;5012635;28;20056;-40
2022/03/20 06:28:55;;;;;;;35.92;18.42;;;2.70;99.90;;;;;;5012407;28;20436;-39
2022/03/20 06:31:22;;;;;;;27.52;18.13;;;2.80;99.90;;;;;;5007123;28;20397;-39
2022/03/20 06:33:49;;;;;;;33.13;18.40;;;2.80;99.90;;;;;;5007879;28;20450;-39
2022/03/20 06:36:16;;;;;;;31.75;19.17;;;2.80;99.90;;;;;;5011237;28;20158;-39
2022/03/20 06:38:42;;;;;;;32.00;18.63;;;2.80;99.90;;;;;;5012810;28;20044;-40
2022/03/20 06:41:09;;;;;;;30.92;18.45;;;2.80;99.90;;;;;;5010086;28;20044;-39
2022/03/20 06:43:36;;;;;;;31.88;18.88;;;2.90;99.90;;;;;;5011513;28;20041;-39
2022/03/20 06:46:05;;;;;;;30.20;18.27;;;2.90;99.90;;;;;;5009204;28;20470;-39
2022/03/20 06:48:31;;;;;;;34.75;19.77;;;2.90;99.90;;;;;;5012461;28;20140;-40
2022/03/20 06:50:58;;;;;;;28.30;18.65;;;3.00;99.90;;;;;;5005074;28;20049;-40
2022/03/20 06:53:25;;;;;;;30.60;18.88;;;3.00;99.90;;;;;;5012399;28;20034;-40
2022/03/20 06:55:52;;;;;;;30.67;18.90;;;3.00;99.90;;;;;;5011201;28;20046;-40
2022/03/20 06:58:20;;;;;;;31.48;18.38;;;3.10;99.90;;;;;;5012062;28;20457;-39
2022/03/20 07:00:47;;;;;;;29.02;18.45;;;3.20;99.90;;;;;;5010923;28;20042;-40
2022/03/20 07:03:15;;;;;;;32.47;19.55;;;3.20;99.90;;;;;;5010874;28;20045;-39
2022/03/20 07:05:42;;;;;;;30.67;19.38;;;3.20;99.90;;;;;;5012069;28;20408;-39
2022/03/20 07:08:09;;;;;;;28.48;17.75;;;3.30;99.90;;;;;;5012210;28;20049;-40
2022/03/20 07:10:36;;;;;;;31.45;19.48;;;3.30;99.90;;;;;;5010754;28;20053;-40
2022/03/20 07:15:48;;;;;;;36.85;19.95;;;3.40;99.70;;;;;;5012216;28;20046;-39
2022/03/20 07:18:17;;;;;;;30.02;19.50;;;3.50;99.60;;;;;;5010391;28;20057;-40
2022/03/20 07:20:45;;;;;;;32.63;19.55;;;3.50;99.40;;;;;;5010872;28;20046;-39
2022/03/20 07:23:12;;;;;;;34.95;20.00;;;3.60;99.10;;;;;;5007113;28;20050;-39
2022/03/20 07:31:08;;;;;;;40.15;18.80;;;3.90;98.50;;;;;;5015691;28;20489;-40
2022/03/20 07:33:36;;;;;;;30.50;20.05;;;4.00;98.00;;;;;;5007859;28;20454;-40
2022/03/20 07:36:03;;;;;;;31.40;18.98;;;4.10;97.60;;;;;;5014849;28;20054;-39
2022/03/20 07:38:30;;;;;;;32.38;18.95;;;4.20;97.30;;;;;;5015335;28;20070;-39
2022/03/20 07:40:57;;;;;;;36.55;20.08;;;4.20;96.80;;;;;;5016029;28;20121;-39
2022/03/20 07:43:25;;;;;;;34.35;18.05;;;4.30;96.50;;;;;;5014440;28;20425;-39
2022/03/20 07:45:52;;;;;;;35.42;18.50;;;4.40;96.10;;;;;;5015077;28;20397;-39
2022/03/20 07:48:21;;;;;;;28.48;18.00;;;4.40;96.20;;;;;;5015645;28;20046;-39
2022/03/20 07:50:50;;;;;;;31.45;19.80;;;4.50;95.60;;;;;;5014029;28;20124;-40
2022/03/20 07:53:17;;;;;;;32.50;18.85;;;4.50;95.60;;;;;;5014207;28;20057;-40
2022/03/20 07:55:44;;;;;;;26.27;17.13;;;4.50;95.30;;;;;;5014863;28;20450;-40
2022/03/20 07:58:10;;;;;;;33.33;19.83;;;4.60;95.00;;;;;;5015005;28;20128;-40
2022/03/20 08:00:40;;;;;;;32.80;19.42;;;4.60;94.80;;;;;;5012040;28;20121;-40
2022/03/20 08:03:06;;;;;;;32.30;18.88;;;4.60;94.50;;;;;;5014349;28;20072;-40
2022/03/20 08:05:33;;;;;;;30.77;19.08;;;4.60;94.10;;;;;;5014127;28;20052;-39
2022/03/20 08:08:03;;;;;;;30.50;18.67;;;4.60;94.20;;;;;;5013747;28;20121;-40
2022/03/20 08:10:29;;;;;;;31.85;20.10;;;4.60;94.00;;;;;;5014903;28;21224;-39
2022/03/20 08:12:56;;;;;;;31.52;19.83;;;4.70;93.90;;;;;;5023243;28;20038;-39
2022/03/20 08:15:26;;;;;;;34.67;18.70;;;4.70;93.70;;;;;;5015576;28;20049;-40
2022/03/20 08:17:53;;;;;;;33.75;19.52;;;4.90;93.10;;;;;;5014875;28;20077;-40
2022/03/20 08:20:20;;;;;;;35.90;19.42;;;5.10;93.10;;;;;;5015216;28;20046;-40
2022/03/20 08:22:48;;;;;;;34.28;19.35;;;5.20;92.50;;;;;;5014804;28;20049;-40
2022/03/20 08:25:16;;;;;;;35.22;19.38;;;5.20;92.30;;;;;;5014363;28;20054;-40
2022/03/20 08:27:44;;;;;;;32.17;19.58;;;5.30;92.20;;;;;;5013961;28;20050;-40
2022/03/20 08:30:13;;;;;;;33.85;19.52;;;5.40;91.90;;;;;;5014374;28;20038;-40
2022/03/20 08:32:40;;;;;;;29.75;18.70;;;5.60;91.60;;;;;;5013975;28;20050;-40
2022/03/20 08:35:08;;;;;;;31.00;18.55;;;5.60;91.00;;;;;;5006919;28;20048;-40
2022/03/20 08:37:35;;;;;;;34.30;19.98;;;5.60;90.60;;;;;;5014128;28;20125;-39
2022/03/20 08:40:03;;;;;;;33.55;20.08;;;5.60;90.70;;;;;;5014650;28;20042;-39
2022/03/20 08:42:31;;;;;;;31.38;20.35;;;5.60;90.30;;;;;;5014979;28;20042;-40
2022/03/20 08:44:58;;;;;;;33.83;18.05;;;5.60;90.50;;;;;;5014517;28;20052;-40
2022/03/20 08:47:27;;;;;;;34.20;20.70;;;5.70;90.60;;;;;;5014601;28;20049;-40
2022/03/20 08:49:54;;;;;;;32.55;20.42;;;5.90;90.10;;;;;;5014498;28;20042;-40
2022/03/20 08:52:20;;;;;;;35.90;20.27;;;6.10;89.30;;;;;;5014558;28;20375;-40
2022/03/20 08:54:48;;;;;;;29.40;19.23;;;6.30;88.50;;;;;;5014270;28;20041;-40
2022/03/20 08:57:15;;;;;;;31.77;19.52;;;6.50;87.70;;;;;;5013443;28;20058;-40
2022/03/20 08:59:44;;;;;;;32.70;19.70;;;6.60;86.70;;;;;;5009841;28;20056;-40
2022/03/20 09:02:10;;;;;;;29.15;19.02;;;6.80;85.30;;;;;;5010188;28;20401;-40
2022/03/20 09:04:37;;;;;;;31.45;19.55;;;6.80;83.10;;;;;;5010877;28;20077;-40
2022/03/20 09:07:05;;;;;;;33.80;20.90;;;6.90;81.30;;;;;;5013837;28;20510;-40
2022/03/20 09:09:31;;;;;;;31.80;20.13;;;7.10;80.90;;;;;;5014196;28;20050;-40
2022/03/20 09:11:59;;;;;;;32.95;19.05;;;7.20;80.40;;;;;;5012558;28;20065;-40
2022/03/20 09:14:26;;;;;;;30.38;19.98;;;7.30;78.20;;;;;;5011973;28;20045;-43
2022/03/20 09:19:39;;;;;;;30.52;19.45;;;7.60;77.70;;;;;;5013603;28;20045;-39
2022/03/20 09:22:06;;;;;;;33.35;19.45;;;7.70;77.20;;;;;;5009821;28;20050;-39
2022/03/20 09:24:33;;;;;;;32.63;20.23;;;7.70;75.60;;;;;;5013237;28;20042;-39
2022/03/20 09:27:02;;;;;;;31.17;20.25;;;7.80;74.50;;;;;;5011361;28;20116;-40
2022/03/20 09:29:29;;;;;;;35.13;20.45;;;7.80;72.90;;;;;;5009106;28;20095;-40
2022/03/20 09:31:57;;;;;;;33.78;19.25;;;7.90;74.20;;;;;;5012525;28;20425;-39
2022/03/20 09:34:24;;;;;;;32.20;19.38;;;8.00;72.10;;;;;;5013231;28;20054;-40
2022/03/20 09:36:51;;;;;;;35.78;21.73;;;8.10;72.10;;;;;;5014021;28;20099;-40
2022/03/20 09:39:17;;;;;;;36.63;21.15;;;8.20;69.90;;;;;;5013547;28;20049;-40
2022/03/20 09:41:45;;;;;;;32.72;21.27;;;8.20;69.50;;;;;;5012419;28;20054;-39
2022/03/20 09:44:15;;;;;;;36.22;20.45;;;8.30;69.40;;;;;;5008062;28;20049;-40
2022/03/20 09:46:41;;;;;;;33.80;19.80;;;8.40;68.70;;;;;;5020790;28;20049;-40
2022/03/20 09:49:10;;;;;;;35.05;21.90;;;8.40;67.80;;;;;;5011497;28;20137;-40
2022/03/20 09:51:36;;;;;;;32.38;20.73;;;8.40;67.50;;;;;;5010002;28;20097;-40
2022/03/20 09:54:03;;;;;;;35.28;20.63;;;8.50;67.00;;;;;;5013242;28;20045;-40
2022/03/20 09:56:30;;;;;;;36.97;21.40;;;8.60;67.10;;;;;;5007327;28;20062;-40
2022/03/20 09:58:57;;;;;;;31.65;21.35;;;8.70;66.80;;;;;;5011694;28;20117;-40
2022/03/20 10:01:24;;;;;;;35.97;20.15;;;8.70;65.40;;;;;;5010122;28;20108;-40
2022/03/20 10:04:06;;;;;;;38.83;21.90;;;8.60;65.40;;;;;;5002797;28;20077;-40
2022/03/20 10:06:36;;;;;;;36.78;21.48;;;8.70;65.30;;;;;;5006717;28;20132;-39
2022/03/20 10:09:04;;;;;;;31.40;19.52;;;8.90;66.10;;;;;;5009803;28;20038;-39
2022/03/20 10:11:31;;;;;;;35.03;21.15;;;9.00;65.20;;;;;;5007911;28;20141;-40
2022/03/20 10:14:12;;;;;;;34.05;20.33;;;9.00;64.20;;;;;;5007719;28;20073;-41
2022/03/20 10:16:40;;;;;;;38.45;20.70;;;9.10;62.80;;;;;;5005513;28;20057;-39
2022/03/20 10:19:31;;;;;;;31.08;18.83;;;9.10;63.80;;;;;;5007836;28;20134;-40
2022/03/20 10:22:04;;;;;;;41.15;23.25;;;9.30;61.90;;;;;;5009314;28;20439;-40
2022/03/20 10:24:31;;;;;;;34.88;21.98;;;9.30;63.20;;;;;;5010135;28;20121;-40
2022/03/20 10:27:06;;;;;;;42.47;23.42;;;9.40;63.80;;;;;;5012232;28;21258;-41
2022/03/20 10:29:34;;;;;;;35.17;21.40;;;9.60;62.90;;;;;;5011695;28;20045;-40
2022/03/20 10:32:02;;;;;;;35.33;22.42;;;9.70;62.90;;;;;;5007949;28;20060;-40
2022/03/20 10:34:29;;;;;;;36.22;21.48;;;9.70;62.50;;;;;;5009602;28;20046;-39
2022/03/20 10:36:55;;;;;;;34.70;21.92;;;9.80;62.30;;;;;;5005189;28;20080;-39
2022/03/20 10:39:27;;;;;;;37.03;23.05;;;9.90;61.40;;;;;;5005886;28;20187;-39
2022/03/20 10:41:54;;;;;;;;;;;9.90;60.30;;;;;;5010214;28;20120;-40
2022/03/20 10:44:21;;;;;;;34.45;21.45;;;9.90;59.20;;;;;;5011204;28;19921;-39
2022/03/20 10:46:55;;;;;;;37.72;22.73;;;9.90;61.20;;;;;;5011424;28;20125;-40
2022/03/20 10:49:22;;;;;;;41.72;23.10;;;10.10;60.80;;;;;;5010867;28;20042;-40
2022/03/20 10:52:01;;;;;;;39.20;22.73;;;10.20;60.90;;;;;;5007960;28;20381;-41
2022/03/20 10:54:39;;;;;;;36.25;23.33;;;10.30;58.40;;;;;;5012526;28;20388;-41
2022/03/20 10:57:06;;;;;;;40.10;23.70;;;10.30;58.60;;;;;;5011800;28;20042;-40
2022/03/20 10:59:33;;;;;;;39.67;22.50;;;10.40;59.70;;;;;;5009660;28;20057;-40
2022/03/20 11:02:00;;;;;;;38.28;22.80;;;10.50;59.40;;;;;;5010119;28;20038;-41
2022/03/20 11:04:28;;;;;;;35.40;23.30;;;10.70;59.70;;;;;;5003911;28;20037;-40
2022/03/20 11:06:57;;;;;;;38.55;23.25;;;10.60;59.10;;;;;;5011066;28;20046;-41
2022/03/20 11:09:24;;;;;;;37.35;21.88;;;10.60;58.80;;;;;;5011549;28;20136;-41
2022/03/20 11:11:53;;;;;;;40.25;23.20;;;10.70;58.60;;;;;;5011850;28;20056;-41
2022/03/20 11:14:21;;;;;;;39.90;23.83;;;10.80;58.40;;;;;;5010655;28;20056;-40
2022/03/20 11:16:48;;;;;;;34.22;23.08;;;10.80;58.50;;;;;;5011015;28;20050;-40
2022/03/20 11:19:18;;;;;;;38.20;23.77;;;10.90;57.90;;;;;;5011823;28;20048;-41
2022/03/20 11:21:46;;;;;;;36.47;23.90;;;11.00;58.00;;;;;;5012473;28;20038;-40
2022/03/20 11:24:16;;;;;;;47.60;23.52;;;11.10;57.70;;;;;;5006922;28;20053;-40
2022/03/20 11:26:44;;;;;;;36.63;21.38;;;11.20;56.80;;;;;;5012415;28;20044;-40
2022/03/20 11:29:13;;;;;;;38.13;24.30;;;11.10;56.20;;;;;;5010618;28;20057;-39
2022/03/20 11:31:39;;;;;;;38.30;23.73;;;11.10;56.10;;;;;;5008227;28;20045;-40
2022/03/20 11:34:08;;;;;;;37.70;23.35;;;11.20;56.20;;;;;;5005494;28;20038;-41
2022/03/20 11:36:50;;;;;;;34.53;22.30;;;11.20;56.00;;;;;;5003534;28;20073;-41
2022/03/20 11:39:16;;;;;;;;;;;11.30;56.20;;;;;;5012016;28;20053;-41
2022/03/20 11:41:43;;;;;;;37.50;23.52;;;11.40;54.10;;;;;;5012703;28;19917;-41
2022/03/20 11:44:21;;;;;;;37.33;23.90;;;11.50;56.60;;;;;;5012183;28;20484;-41
2022/03/20 11:46:50;;;;;;;37.40;25.13;;;11.60;55.00;;;;;;5003123;28;20042;-41
2022/03/20 11:49:23;;;;;;;33.15;22.05;;;11.70;55.70;;;;;;5008311;28;20078;-41
2022/03/20 11:52:09;;;;;;;37.75;23.60;;;11.70;54.30;;;;;;5010907;28;20037;-41
2022/03/20 11:54:53;;;;;;;37.65;24.80;;;11.60;54.60;;;;;;5010536;28;20052;-41
2022/03/20 11:57:38;;;;;;;35.10;24.00;;;11.70;53.60;;;;;;5008641;28;20092;-41
2022/03/20 12:00:12;;;;;;;41.10;23.98;;;11.60;52.70;;;;;;5010924;28;20052;-42
2022/03/20 12:02:51;;;;;;;39.20;23.48;;;11.60;53.30;;;;;;5004972;28;20041;-41
2022/03/20 12:05:24;;;;;;;37.92;22.58;;;11.60;52.80;;;;;;5011151;28;20117;-41
2022/03/20 12:07:55;;;;;;;43.20;24.35;;;11.70;54.00;;;;;;5005590;28;20046;-41
2022/03/20 12:10:23;;;;;;;39.03;25.17;;;11.70;53.80;;;;;;4999748;28;20049;-41
2022/03/20 12:13:04;;;;;;;38.45;24.60;;;11.80;54.00;;;;;;5013216;28;20391;-41
2022/03/20 12:15:33;;;;;;;38.17;23.45;;;11.80;53.30;;;;;;5025790;28;20052;-41
2022/03/20 12:18:04;;;;;;;37.60;22.92;;;11.80;53.90;;;;;;5012153;28;20129;-39
2022/03/20 12:20:59;;;;;;;34.80;23.83;;;11.90;53.80;;;;;;5013743;28;20049;-40
2022/03/20 12:23:40;;;;;;;43.00;24.90;;;11.80;51.60;;;;;;5009844;28;20474;-40
2022/03/20 12:26:31;;;;;;;38.45;25.38;;;11.90;52.70;;;;;;5014032;28;20042;-41
2022/03/20 12:29:32;;;;;;;39.10;24.27;;;11.90;53.20;;;;;;5010787;28;20073;-40
2022/03/20 12:32:02;;;;;;;36.90;25.27;;;12.00;54.00;;;;;;5011633;28;20056;-40
2022/03/20 12:34:30;;;;;;;41.22;25.50;;;12.20;54.50;;;;;;5012772;28;20049;-40
2022/03/20 12:37:12;;;;;;;42.80;26.50;;;12.30;54.10;;;;;;5011591;28;20049;-41
2022/03/20 12:39:49;;;;;;;40.88;25.98;;;12.30;53.80;;;;;;5012965;28;20085;-41
2022/03/20 12:42:17;;;;;;;39.60;25.63;;;12.10;52.40;;;;;;5013944;28;20050;-40
2022/03/20 12:44:46;;;;;;;42.03;26.25;;;11.90;53.50;;;;;;5013360;28;20045;-40
2022/03/20 12:47:16;;;;;;;36.90;25.52;;;11.80;53.50;;;;;;5012493;28;20089;-40
2022/03/20 12:49:43;;;;;;;37.80;25.27;;;11.80;53.40;;;;;;5014308;28;20052;-40
2022/03/20 12:52:10;;;;;;;39.35;25.13;;;11.80;54.10;;;;;;5012561;28;20144;-40
2022/03/20 12:54:37;;;;;;;38.45;24.42;;;11.80;54.00;;;;;;5012011;28;20077;-40
2022/03/20 12:57:04;;;;;;;36.63;25.33;;;11.80;54.40;;;;;;5013957;28;20566;-41
2022/03/20 12:59:31;;;;;;;38.33;25.50;;;11.80;54.20;;;;;;5013738;28;20482;-41
2022/03/20 13:02:03;;;;;;;39.97;25.38;;;11.80;54.30;;;;;;5012022;28;20541;-40
2022/03/20 13:04:31;;;;;;;42.22;26.13;;;11.90;54.80;;;;;;5007607;28;20128;-40
2022/03/20 13:06:58;;;;;;;38.42;24.45;;;11.80;54.80;;;;;;5014072;28;20393;-42
2022/03/20 13:09:25;;;;;;;40.90;26.67;;;11.90;54.90;;;;;;5024322;28;20042;-40
2022/03/20 13:11:59;;;;;;;33.85;24.27;;;11.80;54.70;;;;;;5010418;28;20401;-40
2022/03/20 13:14:26;;;;;;;37.85;25.80;;;11.80;53.80;;;;;;5013491;28;20493;-41
2022/03/20 13:16:53;;;;;;;42.50;26.42;;;11.70;54.60;;;;;;5012440;28;20421;-40
2022/03/20 13:19:32;;;;;;;40.50;25.45;;;11.70;54.70;;;;;;5013672;28;20397;-40
2022/03/20 13:22:01;;;;;;;35.33;25.70;;;11.60;54.60;;;;;;5011401;28;20433;-41
2022/03/20 13:24:32;;;;;;;39.65;25.17;;;11.60;55.10;;;;;;5028806;28;20125;-41